San Francisco, California
Traffic Map
Current Weather Conditions
San Francisco, California
Clear
Clear
58°
Feels Like: 58°
Wind Chill: 58° Ceiling: Unl
Heat Index: 58° Visibility: 10mi
Dew Point: 49° Wind: 3mph
Humidity: 72% Direction: 50° (NE)
Pressure: 30.41in Gusts: 0mph
Raw Report DataKSFO 241756Z 05003KT 10SM CLR 14/09 A3041 RMK AO2 SLP298 T01440094 10144 20083 51014
Traffic Incident Summary
Active as of:
Severity:
Category:
InformationThere was an issue retrieving the traffic information for this location. Please try a different location or try again shortly.
Advertisements
Track Severe Weather on mobile